Alyeska Resort
Hourly Weather - Base Weather Site
ALY_BASE_HR 2/26/2017
CLICK TO VIEW GRAPH!!

        DATE  TIME   Air  BATT   H2o   H2o   Rel
                    Temp  Volt  Inch Since  Hum%
                      F   AVG   1HR  0600   AVG

   2/26/2017 19:00    27 14.03  0.00  0.00    95
   2/26/2017 18:00    29 13.96  0.00  0.00    89
   2/26/2017 17:00    33 13.93  0.00  0.00    83
   2/26/2017 16:00    33 13.93  0.00  0.00    81
   2/26/2017 15:00    34 13.97  0.00  0.00    77
   2/26/2017 14:00    30 14.05  0.00  0.00    80
   2/26/2017 13:00    25 14.14  0.00  0.00    87
   2/26/2017 12:00    24 14.16  0.00  0.00    91
   2/26/2017 11:00    24 14.16  0.00  0.00    89
   2/26/2017 10:00    23 14.16  0.00  0.00    91
   2/26/2017 09:00    24 14.16  0.00  0.00    91
   2/26/2017 08:00    24 14.14  0.00  0.00    92
   2/26/2017 07:00    25 14.13  0.00  0.00    92
   2/26/2017 06:00    26 14.11  0.00  0.00    92
   2/26/2017 05:00    26 14.10  0.00  0.00    93
   2/26/2017 04:00    27 14.10  0.00  0.00    92
   2/26/2017 03:00    27 14.10  0.00  0.00    93
   2/26/2017 02:00    26 14.10  0.00  0.00    94
   2/26/2017 01:00    26 14.10  0.00  0.00    93
   2/25/2017 24:00    26 14.09  0.00  0.00    93
   2/25/2017 23:00    26 14.10  0.00  0.00    93
   2/25/2017 22:00    26 14.10  0.00  0.00    92
   2/25/2017 21:00    26 14.09  0.00  0.00    92
   2/25/2017 20:00    27 14.08  0.00  0.00    92


CLICK TO VIEW GRAPH!!